createdAt,value
2023-04-22T00:19:40.090Z,90.47
2023-04-22T01:19:06.707Z,92.39
2023-04-22T01:33:58.404Z,93.23
2023-04-22T02:04:01.160Z,93.81
2023-04-22T02:18:52.596Z,94.07
2023-04-22T02:33:44.995Z,95.09
2023-04-22T02:48:36.949Z,96.09
2023-04-22T03:03:28.185Z,95.35
2023-04-22T03:18:19.624Z,95.16
2023-04-22T03:33:10.489Z,95.10
2023-04-22T03:48:02.180Z,96.03
2023-04-22T04:02:55.059Z,95.30
2023-04-22T04:17:46.220Z,96.30
2023-04-22T04:32:38.715Z,95.57
2023-04-22T04:47:31.728Z,95.29
2023-04-22T05:02:23.642Z,94.95
2023-04-22T05:17:15.668Z,95.12
2023-04-22T05:32:09.539Z,94.05
2023-04-22T05:47:05.653Z,93.58
2023-04-22T06:02:00.279Z,91.89
2023-04-22T06:16:53.284Z,92.05
2023-04-22T06:31:46.461Z,89.41
2023-04-22T06:46:39.768Z,86.67
2023-04-22T07:01:33.838Z,84.02
2023-04-22T07:16:29.926Z,80.56
2023-04-22T07:31:21.767Z,74.50
2023-04-22T07:46:14.779Z,69.92
2023-04-22T08:01:07.393Z,67.62
2023-04-22T08:16:00.662Z,62.89
2023-04-22T08:30:54.684Z,63.34
2023-04-22T08:45:47.523Z,62.83
2023-04-22T10:00:34.678Z,55.45
2023-04-22T10:15:27.558Z,54.15
2023-04-22T10:30:29.503Z,53.23
2023-04-22T10:45:28.739Z,46.59
2023-04-22T11:00:22.517Z,43.31
2023-04-22T11:15:17.133Z,41.27
2023-04-22T11:30:15.324Z,40.18
2023-04-22T11:45:09.714Z,40.89
2023-04-22T12:00:02.223Z,39.61
2023-04-22T12:14:55.609Z,38.66
2023-04-22T12:29:54.295Z,36.54
2023-04-22T13:29:26.500Z,36.39
2023-04-22T13:44:19.026Z,35.17
2023-04-22T13:59:11.327Z,34.62
2023-04-22T14:14:03.404Z,34.81
2023-04-22T14:28:54.903Z,35.12
2023-04-22T14:43:46.655Z,35.86
2023-04-22T14:58:36.905Z,36.84
2023-04-22T15:13:29.419Z,36.98
2023-04-22T15:28:21.929Z,38.40
2023-04-22T15:43:14.292Z,38.37
2023-04-22T15:58:06.688Z,39.00
2023-04-22T16:12:58.728Z,39.72
2023-04-22T16:27:52.079Z,39.97
2023-04-22T16:42:44.363Z,40.76
2023-04-22T16:57:36.146Z,41.78
2023-04-22T17:12:26.861Z,42.39
2023-04-22T17:27:17.952Z,43.57
2023-04-22T17:42:09.249Z,44.88
2023-04-22T17:56:59.790Z,47.01
2023-04-22T18:11:50.068Z,49.28
2023-04-22T18:26:40.544Z,51.76
2023-04-22T18:41:31.455Z,54.80
2023-04-22T18:56:22.251Z,56.30
2023-04-22T19:11:12.520Z,57.83
2023-04-22T19:55:44.661Z,61.17
2023-04-22T20:10:35.985Z,62.98
2023-04-22T20:25:26.875Z,64.20
2023-04-22T20:40:19.210Z,65.98
2023-04-22T20:55:11.151Z,67.90
2023-04-22T21:10:02.673Z,69.31
2023-04-22T21:24:54.988Z,70.53
2023-04-22T21:39:47.136Z,72.13
2023-04-22T21:54:38.532Z,72.59
2023-04-22T22:09:30.120Z,73.26
2023-04-22T22:24:22.307Z,73.99
2023-04-22T22:39:12.402Z,74.58
2023-04-22T22:54:04.056Z,75.25
2023-04-22T23:08:55.192Z,76.36
2023-04-22T23:23:46.667Z,79.95
2023-04-22T23:38:38.813Z,85.50
2023-04-22T23:53:29.884Z,89.21
